Time;durP1;ratioP1;P1;durP2;ratioP2;P2;SDS_P1;SDS_P2;PMS_P1;PMS_P2;Temp;Humidity;BMP_temperature;BMP_pressure;BME280_temperature;BME280_humidity;BME280_pressure;Samples;Min_cycle;Max_cycle;Signal;HPM_P1;HPM_P2
2021/12/23 00:00:53;;;;;;;22.08;12.05;;;;;;;-0.76;97.23;101705.38;5033073;28;20474;-75
2021/12/23 00:03:18;;;;;;;22.60;12.70;;;;;;;-0.75;96.89;101717.56;5032650;28;20111;-73
2021/12/23 00:05:44;;;;;;;22.55;12.73;;;;;;;-0.75;96.63;101701.09;5031896;28;20393;-74
2021/12/23 00:08:09;;;;;;;22.42;12.43;;;;;;;-0.77;96.10;101714.03;5032969;28;20068;-75
2021/12/23 00:10:34;;;;;;;22.73;13.07;;;;;;;-0.77;96.88;101714.03;5033032;28;20029;-74
2021/12/23 00:13:00;;;;;;;22.10;12.77;;;;;;;-0.73;96.48;101728.88;5032966;28;20041;-73
2021/12/23 00:15:50;;;;;;;24.00;12.88;;;;;;;-0.70;96.53;101705.50;5032524;28;20029;-73
2021/12/23 00:23:43;;;;;;;20.25;11.93;;;;;;;-0.56;92.40;101679.69;5013783;28;20044;-74
2021/12/23 00:26:09;;;;;;;22.02;11.70;;;;;;;-0.48;91.83;101681.53;5034249;28;20108;-74
2021/12/23 00:28:34;;;;;;;21.38;12.43;;;;;;;-0.42;90.31;101681.59;5036462;28;20034;-73
2021/12/23 00:31:01;;;;;;;21.38;12.38;;;;;;;-0.35;89.40;101671.28;5036692;28;20488;-74
2021/12/23 00:33:28;;;;;;;24.02;11.48;;;;;;;-0.31;89.46;101669.63;5036784;28;20090;-74
2021/12/23 00:35:55;;;;;;;22.10;11.88;;;;;;;-0.28;89.27;101647.97;5036407;28;20125;-74
2021/12/23 00:38:29;;;;;;;22.98;12.23;;;;;;;-0.26;89.32;101646.25;5036350;28;20028;-74
2021/12/23 00:40:57;;;;;;;21.02;12.40;;;;;;;-0.23;89.29;101660.19;5036367;28;20037;-74
2021/12/23 00:43:23;;;;;;;23.35;12.82;;;;;;;-0.14;88.71;101659.44;5036430;28;20064;-74
2021/12/23 00:45:49;;;;;;;23.55;12.52;;;;;;;-0.14;88.38;101643.81;5036026;28;20021;-74
2021/12/23 00:48:15;;;;;;;23.50;12.15;;;;;;;-0.11;87.92;101635.19;5036121;28;20477;-74
2021/12/23 00:50:41;;;;;;;24.73;13.10;;;;;;;-0.10;87.67;101622.16;5036396;28;20106;-75
2021/12/23 00:53:08;;;;;;;23.15;13.20;;;;;;;-0.14;88.19;101619.50;5036447;28;20105;-74
2021/12/23 00:55:34;;;;;;;29.00;13.63;;;;;;;-0.17;88.57;101623.84;5036149;28;20489;-74
2021/12/23 00:58:00;;;;;;;25.00;13.35;;;;;;;-0.19;88.77;101619.47;5036032;28;20030;-74
2021/12/23 01:00:27;;;;;;;23.25;13.18;;;;;;;-0.22;88.35;101607.28;5035893;28;20030;-75
2021/12/23 01:02:52;;;;;;;24.85;13.73;;;;;;;-0.29;88.79;101613.25;5034715;28;20041;-73
2021/12/23 01:05:21;;;;;;;25.73;13.43;;;;;;;-0.33;88.55;101608.88;5036055;28;20036;-74
2021/12/23 01:07:47;;;;;;;24.10;13.45;;;;;;;-0.36;88.80;101608.81;5035356;28;20108;-74
2021/12/23 01:10:15;;;;;;;25.38;13.05;;;;;;;-0.41;89.19;101606.19;5034117;28;20049;-75
2021/12/23 01:12:49;;;;;;;24.00;13.98;;;;;;;-0.46;89.18;101615.66;5036070;28;20049;-74
2021/12/23 01:17:56;;;;;;;23.83;13.25;;;;;;;-0.56;89.42;101606.00;5035315;28;20084;-73
2021/12/23 01:20:30;;;;;;;23.58;12.98;;;;;;;-0.59;89.71;101595.50;5035877;28;20021;-74
2021/12/23 01:22:58;;;;;;;25.33;14.25;;;;;;;-0.66;90.54;101611.03;5035258;28;20367;-74
2021/12/23 01:25:24;;;;;;;28.98;14.35;;;;;;;-0.71;90.85;101604.03;5035704;28;20043;-74
2021/12/23 01:27:50;;;;;;;26.98;13.55;;;;;;;-0.69;91.17;101598.00;5034937;28;20883;-74
2021/12/23 01:30:17;;;;;;;24.20;12.75;;;;;;;-0.71;91.24;101593.63;5035724;28;20103;-74
2021/12/23 01:32:43;;;;;;;27.55;15.43;;;;;;;-0.73;91.13;101596.22;5035531;28;20488;-74
2021/12/23 01:35:09;;;;;;;26.83;14.15;;;;;;;-0.79;91.25;101592.63;5034840;28;20022;-74
2021/12/23 01:37:35;;;;;;;29.50;15.32;;;;;;;-0.84;92.04;101590.00;5034456;28;20036;-74
2021/12/23 01:40:01;;;;;;;29.02;15.25;;;;;;;-0.83;92.20;101594.34;5034472;28;20077;-73
2021/12/23 01:42:27;;;;;;;29.83;15.77;;;;;;;-0.82;92.03;101588.25;5035218;28;20072;-74
2021/12/23 01:44:52;;;;;;;31.42;15.20;;;;;;;-0.80;91.69;101590.91;5035302;28;20033;-74
2021/12/23 01:47:17;;;;;;;26.88;15.48;;;;;;;-0.83;92.12;101584.81;5035318;28;20075;-75
2021/12/23 01:49:42;;;;;;;28.95;15.45;;;;;;;-0.88;92.13;101596.88;5034552;28;20099;-73
2021/12/23 01:52:08;;;;;;;28.70;16.17;;;;;;;-0.89;91.96;101591.66;5034932;28;20037;-74
2021/12/23 01:54:33;;;;;;;31.13;15.95;;;;;;;-0.93;92.39;101584.63;5034937;28;20033;-73
2021/12/23 01:56:59;;;;;;;30.13;16.02;;;;;;;-0.96;92.68;101572.47;5035414;28;20477;-74
2021/12/23 01:59:24;;;;;;;31.20;16.52;;;;;;;-0.95;92.84;101560.34;5034438;28;20406;-73
2021/12/23 02:01:50;;;;;;;36.10;18.20;;;;;;;-0.99;93.21;101554.22;5034847;28;20029;-74
2021/12/23 02:04:15;;;;;;;38.25;20.30;;;;;;;-1.00;93.65;101542.06;5034843;28;20359;-73
2021/12/23 02:06:40;;;;;;;39.42;19.95;;;;;;;-0.99;93.87;101531.69;5035080;28;20025;-73
2021/12/23 02:09:06;;;;;;;39.10;20.33;;;;;;;-1.01;94.34;101516.94;5033887;28;20449;-73
2021/12/23 02:11:32;;;;;;;35.47;18.83;;;;;;;-1.00;94.14;101516.09;5034619;28;20080;-73
2021/12/23 02:13:57;;;;;;;39.10;19.85;;;;;;;-1.03;94.82;101526.44;5034760;28;20030;-74
2021/12/23 02:16:22;;;;;;;39.65;19.35;;;;;;;-1.05;95.24;101509.94;5034930;28;20045;-74
2021/12/23 02:18:48;;;;;;;40.55;20.35;;;;;;;-1.07;94.90;101504.72;5034695;28;20406;-73
2021/12/23 02:21:13;;;;;;;40.50;20.25;;;;;;;-1.04;95.50;101514.28;5033982;28;20504;-73
2021/12/23 02:23:39;;;;;;;44.00;21.70;;;;;;;-1.03;95.37;101503.06;5029591;28;20029;-73
2021/12/23 02:26:04;;;;;;;47.80;22.25;;;;;;;-0.99;95.65;101504.84;5017545;28;20024;-74
2021/12/23 02:28:29;;;;;;;45.70;22.48;;;;;;;-0.98;95.59;101501.38;5015176;28;20032;-70
2021/12/23 02:30:55;;;;;;;46.03;23.15;;;;;;;-0.97;95.80;101507.44;5019435;28;20026;-72
2021/12/23 02:33:26;;;;;;;43.85;22.77;;;;;;;-1.00;96.07;101505.69;5014690;28;20382;-71
2021/12/23 02:35:56;;;;;;;47.60;23.58;;;;;;;-1.01;96.32;101511.72;5014424;28;20470;-70
2021/12/23 02:38:21;;;;;;;47.28;23.15;;;;;;;-1.00;96.39;101511.78;5024932;28;20029;-70
2021/12/23 02:40:48;;;;;;;46.60;22.90;;;;;;;-0.96;96.97;101498.81;5033700;28;20759;-70
2021/12/23 02:43:17;;;;;;;47.78;25.23;;;;;;;-0.95;96.74;101496.22;5033745;28;20034;-73
2021/12/23 02:45:45;;;;;;;51.17;25.48;;;;;;;-0.91;97.12;101499.75;5034517;28;20113;-73
2021/12/23 02:48:12;;;;;;;51.80;24.25;;;;;;;-0.87;96.56;101502.41;5034064;28;20029;-75
2021/12/23 02:50:38;;;;;;;52.85;26.35;;;;;;;-0.85;97.04;101481.63;5034153;28;20080;-73
2021/12/23 02:53:03;;;;;;;55.10;25.38;;;;;;;-0.87;96.56;101475.50;5033389;28;20029;-72
2021/12/23 02:55:29;;;;;;;55.95;25.50;;;;;;;-0.85;97.04;101485.06;5033355;28;20026;-74
2021/12/23 02:57:54;;;;;;;54.70;25.92;;;;;;;-0.85;97.32;101479.88;5033908;28;20040;-74
2021/12/23 03:00:20;;;;;;;56.40;26.38;;;;;;;-0.89;96.68;101462.50;5033719;28;20041;-71
2021/12/23 03:02:45;;;;;;;56.33;26.35;;;;;;;-0.88;96.58;101477.25;5032515;28;20041;-74
2021/12/23 03:05:10;;;;;;;51.63;25.48;;;;;;;-0.88;96.42;101485.06;5033847;28;20096;-73
2021/12/23 03:07:36;;;;;;;52.30;25.15;;;;;;;-0.92;96.29;101478.06;5033477;28;20076;-73
2021/12/23 03:10:04;;;;;;;52.00;24.23;;;;;;;-0.98;96.25;101480.59;5033499;28;20021;-73
2021/12/23 03:12:30;;;;;;;56.38;24.73;;;;;;;-1.01;97.04;101465.81;5033685;28;20037;-74
2021/12/23 03:14:55;;;;;;;54.95;24.50;;;;;;;-1.01;97.27;101459.72;5033861;28;20397;-73
2021/12/23 03:17:20;;;;;;;56.65;25.42;;;;;;;-1.00;97.07;101448.50;5033294;28;20539;-73
2021/12/23 03:19:46;;;;;;;54.35;26.42;;;;;;;-0.96;97.20;101439.88;5033601;28;20029;-74
2021/12/23 03:22:11;;;;;;;54.28;25.23;;;;;;;-0.98;97.19;101418.19;5033251;28;20464;-74
2021/12/23 03:24:36;;;;;;;51.53;24.55;;;;;;;-1.01;96.97;101423.34;5033225;28;20038;-73
2021/12/23 03:27:02;;;;;;;61.45;26.38;;;;;;;-1.01;97.52;101423.34;5033213;28;20120;-73
2021/12/23 03:29:27;;;;;;;57.30;25.65;;;;;;;-1.02;97.60;101425.09;5033384;28;20425;-73
2021/12/23 03:31:53;;;;;;;55.42;24.88;;;;;;;-1.03;97.45;101417.28;5033395;28;20029;-73
2021/12/23 03:34:18;;;;;;;57.25;25.15;;;;;;;-1.04;97.41;101412.91;5033485;28;20029;-73
2021/12/23 03:36:43;;;;;;;56.08;25.10;;;;;;;-1.04;97.74;101408.56;5033586;28;20458;-74
2021/12/23 03:39:09;;;;;;;56.45;24.83;;;;;;;-1.02;97.94;101421.63;5032872;28;20051;-74
2021/12/23 03:41:34;;;;;;;56.78;23.92;;;;;;;-1.02;97.25;101424.22;5033192;28;20029;-74
2021/12/23 03:43:59;;;;;;;58.33;25.05;;;;;;;-0.95;97.69;101432.97;5032448;28;20492;-73
2021/12/23 03:46:25;;;;;;;55.67;24.42;;;;;;;-0.95;97.68;101423.41;5032648;28;20034;-73
2021/12/23 03:48:50;;;;;;;58.28;22.85;;;;;;;-0.97;97.40;101427.75;5033099;28;20026;-72
2021/12/23 03:51:16;;;;;;;55.33;24.00;;;;;;;-0.90;97.44;101420.88;5033236;28;20469;-74
2021/12/23 03:53:41;;;;;;;59.03;24.77;;;;;;;-0.92;97.22;101428.69;5032802;28;20025;-73
2021/12/23 03:56:07;;;;;;;55.40;25.08;;;;;;;-0.93;97.17;101436.44;5032839;28;20025;-74
2021/12/23 03:58:32;;;;;;;62.80;25.45;;;;;;;-0.87;97.15;101432.19;5032487;28;20022;-72
2021/12/23 04:00:59;;;;;;;61.92;25.58;;;;;;;-0.88;97.51;101438.25;5032584;28;20057;-73
2021/12/23 04:03:25;;;;;;;57.70;25.52;;;;;;;-0.81;96.72;101435.72;5032939;28;20083;-73
2021/12/23 04:05:50;;;;;;;58.78;25.10;;;;;;;-0.81;97.22;101436.59;5033029;28;20120;-74
2021/12/23 04:08:15;;;;;;;55.65;24.23;;;;;;;-0.84;96.99;101437.44;5032979;28;20017;-74
2021/12/23 04:10:41;;;;;;;62.75;24.77;;;;;;;-0.81;97.32;101435.72;5032365;28;20655;-74
2021/12/23 04:13:06;;;;;;;57.97;23.90;;;;;;;-0.83;97.55;101422.72;5032538;28;20029;-72
2021/12/23 04:15:32;;;;;;;63.35;26.83;;;;;;;-0.84;97.75;101424.41;5032811;28;20030;-74
2021/12/23 04:17:57;;;;;;;64.07;26.52;;;;;;;-0.79;97.62;101432.28;5032951;28;20057;-73
2021/12/23 04:20:30;;;;;;;69.85;26.92;;;;;;;-0.79;97.86;101427.09;5032640;28;20029;-74
2021/12/23 04:22:56;;;;;;;62.75;26.08;;;;;;;-0.80;97.49;101417.53;5032566;28;20041;-74
2021/12/23 04:25:24;;;;;;;63.63;27.23;;;;;;;-0.79;97.73;101406.28;5032341;28;20100;-73
2021/12/23 04:27:52;;;;;;;64.13;24.70;;;;;;;-0.78;98.01;101414.94;5032497;28;20072;-73
2021/12/23 04:30:19;;;;;;;61.45;25.15;;;;;;;-0.71;97.44;101415.03;5032698;28;20371;-70
2021/12/23 04:32:45;;;;;;;72.20;26.48;;;;;;;-0.68;97.42;101425.50;5032693;28;20029;-70
2021/12/23 04:35:10;;;;;;;70.90;26.25;;;;;;;-0.69;97.43;101415.03;5032328;28;20033;-74
2021/12/23 04:37:36;;;;;;;65.18;26.40;;;;;;;-0.68;97.59;101402.06;5032595;28;20090;-70
2021/12/23 04:40:06;;;;;;;62.67;25.73;;;;;;;-0.72;97.90;101389.00;5032559;28;20486;-73
2021/12/23 04:42:31;;;;;;;62.88;26.02;;;;;;;-0.73;97.86;101395.06;5031922;28;20022;-74
2021/12/23 04:44:57;;;;;;;63.80;26.65;;;;;;;-0.71;98.19;101395.97;5031748;28;20040;-73
2021/12/23 04:47:22;;;;;;;64.95;25.98;;;;;;;-0.71;97.96;101380.34;5032388;28;20096;-74
2021/12/23 04:49:47;;;;;;;63.50;24.90;;;;;;;-0.76;97.89;101385.50;5032764;28;20034;-74
2021/12/23 04:52:13;;;;;;;64.40;26.75;;;;;;;-0.78;97.79;101383.75;5032273;28;20022;-74
2021/12/23 04:54:38;;;;;;;65.72;25.60;;;;;;;-0.80;98.46;101388.06;5032575;28;20033;-73
2021/12/23 04:57:04;;;;;;;63.30;25.55;;;;;;;-0.81;98.08;101386.31;5031732;28;20065;-72
2021/12/23 04:59:29;;;;;;;61.85;25.83;;;;;;;-0.79;98.42;101379.38;5032683;28;20037;-74
2021/12/23 05:01:54;;;;;;;62.75;25.33;;;;;;;-0.83;98.83;101374.16;5032561;28;20029;-73
2021/12/23 05:04:20;;;;;;;68.90;26.23;;;;;;;-0.85;99.30;101375.88;5032116;28;20064;-73
2021/12/23 05:06:45;;;;;;;69.30;26.73;;;;;;;-0.88;99.33;101359.38;5032044;28;20565;-73
2021/12/23 05:09:11;;;;;;;66.20;25.73;;;;;;;-0.86;99.41;101360.25;5032476;28;20435;-73
2021/12/23 05:11:36;;;;;;;66.22;25.88;;;;;;;-0.83;99.97;101363.75;5034290;28;20026;-74
2021/12/23 05:14:01;;;;;;;68.80;26.65;;;;;;;-0.81;100.00;101361.19;5035238;28;20108;-74
2021/12/23 05:16:26;;;;;;;61.10;25.15;;;;;;;-0.72;100.00;101353.47;5035310;28;20021;-73
2021/12/23 05:18:52;;;;;;;66.57;24.38;;;;;;;-0.67;99.34;101343.97;5035968;28;20462;-73
2021/12/23 05:21:17;;;;;;;60.53;26.42;;;;;;;-0.66;98.83;101330.13;5035805;28;20079;-72
2021/12/23 05:23:43;;;;;;;59.47;24.33;;;;;;;-0.63;99.17;101338.81;5035662;28;20377;-73
2021/12/23 05:26:08;;;;;;;62.00;25.00;;;;;;;-0.57;99.14;101336.28;5035052;28;20431;-71
2021/12/23 05:28:34;;;;;;;60.70;24.33;;;;;;;-0.53;98.97;101332.84;5035628;28;20100;-70
2021/12/23 05:31:00;;;;;;;61.33;23.70;;;;;;;-0.52;98.76;101326.78;5035414;28;20022;-73
2021/12/23 05:33:26;;;;;;;59.45;24.02;;;;;;;-0.47;98.63;101321.59;5034200;28;20116;-72
2021/12/23 05:35:51;;;;;;;59.97;25.10;;;;;;;-0.50;98.63;101327.66;5035354;28;20105;-73
2021/12/23 05:38:17;;;;;;;52.17;21.58;;;;;;;-0.47;98.30;101317.28;5034989;28;20085;-70
2021/12/23 05:40:42;;;;;;;59.97;23.63;;;;;;;-0.46;98.70;101302.53;5035312;28;20049;-73
2021/12/23 05:43:08;;;;;;;56.72;22.90;;;;;;;-0.42;98.62;101307.78;5034980;28;20029;-74
2021/12/23 05:45:33;;;;;;;62.70;24.98;;;;;;;-0.42;98.42;101299.09;5034895;28;20060;-73
2021/12/23 05:47:58;;;;;;;54.92;22.70;;;;;;;-0.38;98.44;101288.72;5034695;28;20013;-73
2021/12/23 05:50:24;;;;;;;55.25;23.40;;;;;;;-0.43;97.91;101295.63;5035148;28;20025;-73
2021/12/23 05:52:51;;;;;;;59.75;23.17;;;;;;;-0.40;98.12;101311.25;5034966;28;20028;-74
2021/12/23 05:55:17;;;;;;;58.53;23.15;;;;;;;-0.40;98.43;101318.19;5035034;28;20033;-73
2021/12/23 05:57:43;;;;;;;55.42;22.88;;;;;;;-0.38;98.30;101314.75;5034570;28;20064;-74
2021/12/23 06:00:14;;;;;;;54.97;22.10;;;;;;;-0.38;98.76;101299.13;5034291;28;20080;-73
2021/12/23 06:02:39;;;;;;;56.53;22.45;;;;;;;-0.37;98.68;101297.41;5034798;28;20048;-74
2021/12/23 06:05:06;;;;;;;59.50;23.42;;;;;;;-0.32;98.52;101297.44;5034784;28;20029;-73
2021/12/23 06:07:31;;;;;;;57.67;23.80;;;;;;;-0.31;98.45;101287.03;5034289;28;20021;-74
2021/12/23 06:09:57;;;;;;;56.45;22.30;;;;;;;-0.25;98.57;101292.28;5034535;28;20393;-73
2021/12/23 06:12:22;;;;;;;55.45;23.00;;;;;;;-0.22;98.47;101297.53;5034730;28;20026;-74
2021/12/23 06:14:48;;;;;;;57.30;22.63;;;;;;;-0.22;97.94;101276.72;5034177;28;20040;-75
2021/12/23 06:17:13;;;;;;;58.88;22.00;;;;;;;-0.22;97.83;101279.31;5034793;28;20037;-75
2021/12/23 06:19:38;;;;;;;53.90;22.10;;;;;;;-0.18;98.59;101295.81;5032783;28;20505;-74
2021/12/23 06:22:04;;;;;;;52.67;21.98;;;;;;;-0.07;98.09;101319.31;5033926;28;20339;-75
2021/12/23 06:24:31;;;;;;;55.38;22.40;;;;;;;-0.07;97.68;101296.75;5031836;28;20128;-74
2021/12/23 06:26:56;;;;;;;53.05;22.25;;;;;;;-0.08;97.55;101299.34;5034247;28;20029;-75
2021/12/23 06:29:21;;;;;;;53.20;21.10;;;;;;;-0.09;97.66;101293.28;5034132;28;20109;-75
2021/12/23 06:31:47;;;;;;;53.13;22.25;;;;;;;-0.11;97.99;101292.38;5033726;28;20370;-72
2021/12/23 06:34:12;;;;;;;55.10;21.23;;;;;;;-0.08;97.74;101292.41;5034429;28;20428;-73
2021/12/23 06:36:37;;;;;;;52.78;21.48;;;;;;;-0.04;98.08;101288.09;5033070;28;20495;-73
2021/12/23 06:39:05;;;;;;;54.90;22.63;;;;;;;-0.07;98.19;101277.66;5033507;28;20082;-76
2021/12/23 06:41:30;;;;;;;57.13;23.13;;;;;;;-0.09;97.96;101275.06;5032076;28;20539;-74
2021/12/23 06:43:56;;;;;;;57.78;22.00;;;;;;;-0.09;98.09;101261.16;5033991;28;20041;-72
2021/12/23 06:46:21;;;;;;;55.90;22.85;;;;;;;-0.04;98.13;101257.72;5033327;28;20022;-75
2021/12/23 06:48:46;;;;;;;55.83;22.80;;;;;;;-0.05;98.26;101239.47;5033746;28;20030;-75
2021/12/23 06:51:12;;;;;;;55.72;20.88;;;;;;;-0.04;98.05;101233.41;5033465;28;20032;-74
2021/12/23 06:53:37;;;;;;;48.70;21.48;;;;;;;-0.03;98.23;101242.97;5033913;28;20033;-74
2021/12/23 06:56:03;;;;;;;58.97;22.08;;;;;;;-0.03;98.52;101249.03;5033504;28;20499;-75
2021/12/23 06:58:31;;;;;;;53.33;21.55;;;;;;;0.04;98.13;101257.78;5032456;28;20052;-75
2021/12/23 07:00:56;;;;;;;53.72;22.80;;;;;;;0.06;97.77;101253.41;5033730;28;20022;-74
2021/12/23 07:03:25;;;;;;;57.20;22.23;;;;;;;0.08;97.72;101254.31;5032767;28;20036;-74
2021/12/23 07:05:56;;;;;;;51.58;21.05;;;;;;;0.07;97.81;101259.53;5033598;28;20059;-74
2021/12/23 07:08:29;;;;;;;58.57;22.80;;;;;;;0.05;97.80;101266.44;5033262;28;20025;-73
2021/12/23 07:10:55;;;;;;;51.67;22.33;;;;;;;0.02;97.72;101263.84;5033687;28;20099;-74
2021/12/23 07:13:21;;;;;;;54.15;22.15;;;;;;;0.09;97.87;101266.47;5032964;28;20381;-75
2021/12/23 07:15:47;;;;;;;56.85;21.85;;;;;;;0.15;97.86;101270.84;5033058;28;20037;-75
2021/12/23 07:18:13;;;;;;;52.45;22.48;;;;;;;0.14;97.80;101264.78;5033208;28;20017;-74
2021/12/23 07:20:38;;;;;;;54.20;22.70;;;;;;;0.19;97.54;101276.94;5032019;28;20087;-74
2021/12/23 07:23:03;;;;;;;55.97;22.73;;;;;;;0.16;97.70;101268.22;5032989;28;20041;-74
2021/12/23 07:25:29;;;;;;;48.78;21.85;;;;;;;0.20;98.00;101276.94;5033300;28;20036;-74
2021/12/23 07:27:54;;;;;;;50.58;22.00;;;;;;;0.26;97.71;101282.19;5033274;28;20385;-73
2021/12/23 07:30:21;;;;;;;51.53;21.75;;;;;;;0.25;97.40;101277.81;5033059;28;20478;-73
2021/12/23 07:32:48;;;;;;;51.97;21.27;;;;;;;0.25;97.24;101274.38;5032673;28;20048;-74
2021/12/23 07:35:14;;;;;;;57.35;23.30;;;;;;;0.21;97.41;101270.00;5032361;28;20032;-75
2021/12/23 07:37:40;;;;;;;52.40;21.63;;;;;;;0.23;97.66;101258.75;5032658;28;20033;-73
2021/12/23 07:40:07;;;;;;;54.90;21.65;;;;;;;0.24;97.66;101244.81;5032952;28;20053;-74
2021/12/23 07:42:34;;;;;;;53.42;21.65;;;;;;;0.25;97.72;101237.91;5031781;28;20029;-76
2021/12/23 07:45:01;;;;;;;54.22;21.70;;;;;;;0.23;97.88;101224.88;5032530;28;20029;-73
2021/12/23 07:47:27;;;;;;;54.33;21.80;;;;;;;0.23;97.79;101216.16;5020411;28;20082;-73
2021/12/23 07:49:52;;;;;;;56.08;21.90;;;;;;;0.26;97.83;101221.41;5027967;28;20030;-74
2021/12/23 07:52:18;;;;;;;53.53;21.90;;;;;;;0.26;98.00;101229.22;5031209;28;20040;-74
2021/12/23 07:54:43;;;;;;;51.85;21.63;;;;;;;0.27;97.62;101231.84;5032852;28;20458;-74
2021/12/23 07:57:08;;;;;;;50.88;21.80;;;;;;;0.30;98.05;101228.38;5031682;28;20492;-72
2021/12/23 07:59:34;;;;;;;55.65;23.00;;;;;;;0.34;97.88;101232.72;5029508;28;20030;-73
2021/12/23 08:01:59;;;;;;;49.33;20.63;;;;;;;0.39;97.69;101233.59;5023632;28;20017;-72
2021/12/23 08:04:25;;;;;;;50.85;21.08;;;;;;;0.38;97.44;101226.66;5019137;28;20511;-74
2021/12/23 08:06:55;;;;;;;55.88;20.73;;;;;;;0.40;97.44;101226.69;5017174;28;20474;-74
2021/12/23 08:09:22;;;;;;;51.00;21.00;;;;;;;0.41;97.25;101220.56;5031615;28;20036;-73
2021/12/23 08:11:47;;;;;;;55.85;22.25;;;;;;;0.44;97.30;101218.00;5032302;28;20091;-73
2021/12/23 08:14:13;;;;;;;50.25;21.75;;;;;;;0.42;97.02;101210.19;5032521;28;20029;-74
2021/12/23 08:16:38;;;;;;;51.78;20.17;;;;;;;0.48;97.20;101209.31;5032211;28;20063;-74
2021/12/23 08:19:04;;;;;;;52.40;20.80;;;;;;;0.46;96.83;101204.09;5029772;28;20026;-74
2021/12/23 08:21:29;;;;;;;47.17;19.77;;;;;;;0.46;97.19;101196.28;5030684;28;20382;-74
2021/12/23 08:23:55;;;;;;;53.10;22.48;;;;;;;0.45;97.36;101189.34;5029708;28;20033;-74
2021/12/23 08:26:27;;;;;;;51.70;20.10;;;;;;;0.44;97.41;101194.56;5025669;28;20442;-75
2021/12/23 08:28:53;;;;;;;49.65;21.08;;;;;;;0.51;97.49;101182.41;5032072;28;20087;-79
2021/12/23 08:31:20;;;;;;;48.75;20.58;;;;;;;0.56;97.36;101175.47;5029795;28;20042;-74
2021/12/23 08:33:46;;;;;;;53.05;20.60;;;;;;;0.61;96.89;101177.19;5032037;28;20099;-79
2021/12/23 08:36:11;;;;;;;50.67;20.33;;;;;;;0.61;96.82;101176.34;5030656;28;20112;-78
2021/12/23 08:38:39;;;;;;;49.70;20.63;;;;;;;0.63;96.65;101164.19;5036710;28;20021;-78
2021/12/23 08:41:04;;;;;;;53.90;21.25;;;;;;;0.62;97.09;101158.09;5031820;28;20108;-76
2021/12/23 08:43:30;;;;;;;49.65;20.77;;;;;;;0.70;96.25;101152.03;5031367;28;20466;-72
2021/12/23 08:45:55;;;;;;;53.40;20.13;;;;;;;0.68;96.14;101164.16;5033974;28;20036;-77
2021/12/23 08:48:20;;;;;;;50.40;20.92;;;;;;;0.68;96.57;101138.09;5031528;28;20064;-77
2021/12/23 08:50:46;;;;;;;49.42;21.25;;;;;;;0.74;96.65;101132.91;5018259;28;20040;-75
2021/12/23 08:53:11;;;;;;;48.78;21.02;;;;;;;0.80;96.12;101131.16;5035643;28;20167;-75
2021/12/23 08:55:37;;;;;;;53.75;21.33;;;;;;;0.84;96.56;101123.34;5035642;28;20112;-77
2021/12/23 08:58:04;;;;;;;48.75;20.80;;;;;;;0.88;96.35;101127.69;5033644;28;20033;-76
2021/12/23 09:00:30;;;;;;;49.35;20.02;;;;;;;0.93;95.85;101131.16;5035675;28;20037;-77
2021/12/23 09:02:55;;;;;;;49.42;21.00;;;;;;;0.95;95.25;101129.44;5034511;28;20505;-74
2021/12/23 09:05:21;;;;;;;45.28;20.02;;;;;;;0.93;95.04;101124.25;5035568;28;20057;-74
2021/12/23 09:07:48;;;;;;;45.92;19.75;;;;;;;0.95;95.26;101119.00;5034949;28;20037;-74
2021/12/23 09:10:14;;;;;;;48.92;21.20;;;;;;;0.93;95.81;101112.91;5027240;28;20025;-74
2021/12/23 09:12:40;;;;;;;49.42;20.65;;;;;;;0.96;96.09;101098.16;5028719;28;20430;-76
2021/12/23 09:15:06;;;;;;;51.38;20.67;;;;;;;0.95;95.49;101100.75;5016391;28;20438;-74
2021/12/23 09:17:31;;;;;;;47.60;19.98;;;;;;;1.07;95.40;101111.16;5055245;28;20087;-75
2021/12/23 09:19:56;;;;;;;47.97;19.73;;;;;;;1.06;95.21;101100.72;5032053;28;20037;-74
2021/12/23 09:22:22;;;;;;;47.53;20.60;;;;;;;1.09;94.31;101096.38;5031715;28;20044;-73
2021/12/23 09:24:48;;;;;;;46.70;19.33;;;;;;;1.05;94.38;101093.78;5035629;28;20465;-75
2021/12/23 09:27:24;;;;;;;45.22;19.40;;;;;;;1.05;94.96;101102.50;5035543;28;20446;-75
2021/12/23 09:35:02;;;;;;;50.80;20.50;;;;;;;1.17;94.71;101096.38;5035102;28;20099;-75
2021/12/23 09:37:28;;;;;;;46.58;19.77;;;;;;;1.26;94.46;101083.31;5035038;28;20560;-76
2021/12/23 09:39:56;;;;;;;43.88;19.90;;;;;;;1.22;94.28;101073.75;5033125;28;20049;-75
2021/12/23 09:42:26;;;;;;;43.10;18.17;;;;;;;1.23;93.75;101078.09;5034896;28;20053;-74
2021/12/23 09:44:57;;;;;;;43.22;18.58;;;;;;;1.32;93.56;101085.03;5034631;28;20029;-74
2021/12/23 09:47:26;;;;;;;50.50;20.70;;;;;;;1.37;93.44;101080.69;5035147;28;20034;-74
2021/12/23 09:49:53;;;;;;;47.55;19.65;;;;;;;1.42;92.65;101080.66;5034625;28;20026;-75
2021/12/23 09:52:20;;;;;;;44.90;19.17;;;;;;;1.44;92.99;101078.91;5032518;28;20087;-71
2021/12/23 09:54:46;;;;;;;43.00;19.42;;;;;;;1.50;92.95;101064.97;5048656;28;20068;-75
2021/12/23 09:57:12;;;;;;;44.75;18.88;;;;;;;1.49;93.50;101076.31;5034900;28;20474;-71
2021/12/23 09:59:37;;;;;;;46.63;19.63;;;;;;;1.57;93.23;101079.75;5044041;28;20034;-71
2021/12/23 10:02:02;;;;;;;40.97;18.40;;;;;;;1.57;93.29;101075.41;5032224;28;20045;-72
2021/12/23 10:04:28;;;;;;;43.60;18.33;;;;;;;1.62;92.80;101064.91;5031035;28;20040;-74
2021/12/23 10:06:54;;;;;;;45.60;19.83;;;;;;;1.60;92.61;101064.09;5049617;28;20071;-72
2021/12/23 10:09:38;;;;;;;43.85;18.45;;;;;;;1.59;92.29;101073.63;5054124;28;20021;-71
2021/12/23 10:31:09;;;;;;;44.60;19.25;;;;;;;1.78;92.84;101056.16;5011844;28;20418;-74
2021/12/23 10:37:04;;;;;;;46.63;18.60;;;;;;;1.85;92.63;101054.38;5009934;28;20107;-74
2021/12/23 10:39:25;;;;;;;44.30;18.75;;;;;;;1.91;91.89;101043.88;5011538;28;20077;-71
2021/12/23 10:41:50;;;;;;;40.88;18.60;;;;;;;1.99;92.33;101043.84;5011546;28;20510;-71
2021/12/23 10:44:28;;;;;;;43.72;18.98;;;;;;;2.10;91.69;101031.59;5008526;28;20121;-73
2021/12/23 10:46:53;;;;;;;45.00;19.88;;;;;;;2.18;90.71;101034.16;5004825;28;20037;-73
2021/12/23 10:52:18;;;;;;;41.42;17.75;;;;;;;2.33;89.91;101042.75;5011237;28;20045;-72
2021/12/23 11:00:28;;;;;;;43.22;18.98;;;;;;;2.55;90.41;101035.63;5032965;28;20080;-71
2021/12/23 11:03:10;;;;;;;44.92;18.50;;;;;;;2.51;89.46;101029.53;5032928;28;20033;-70
2021/12/23 11:05:41;;;;;;;42.45;19.13;;;;;;;2.54;89.79;101007.75;5028033;28;20038;-70
2021/12/23 11:41:20;;;;;;;36.97;17.85;;;;;;;3.03;89.20;100922.66;4971087;28;20066;-71
2021/12/23 11:43:51;;;;;;;40.03;18.35;;;;;;;3.05;89.30;100900.81;4971657;28;20069;-71
2021/12/23 11:46:23;;;;;;;38.53;18.50;;;;;;;3.05;88.79;100910.44;4980514;28;20048;-72
2021/12/23 11:48:53;;;;;;;39.28;18.27;;;;;;;3.00;88.57;100896.53;5039085;28;20120;-71
2021/12/23 11:51:21;;;;;;;44.10;19.48;;;;;;;3.06;89.29;100888.63;5036077;28;20017;-72
2021/12/23 11:53:49;;;;;;;43.20;19.15;;;;;;;3.11;89.39;100869.34;5031848;28;20038;-72
2021/12/23 11:56:17;;;;;;;39.50;18.15;;;;;;;3.21;89.13;100869.22;5032086;28;20025;-72
2021/12/23 11:58:46;;;;;;;41.20;17.88;;;;;;;3.28;88.65;100871.72;5030516;28;20470;-72
2021/12/23 12:01:20;;;;;;;42.30;18.42;;;;;;;3.30;88.94;100861.25;5032541;28;20037;-71
2021/12/23 12:03:57;;;;;;;44.50;19.13;;;;;;;3.37;88.72;100859.41;5033757;28;20029;-72
2021/12/23 12:06:29;;;;;;;40.08;17.08;;;;;;;3.32;88.95;100864.69;5022974;28;20132;-71
2021/12/23 12:09:09;;;;;;;37.22;17.83;;;;;;;3.31;88.72;100860.34;5031389;28;20113;-70
2021/12/23 12:11:35;;;;;;;39.30;18.00;;;;;;;3.25;89.02;100855.22;5032041;28;20033;-72
2021/12/23 12:14:00;;;;;;;41.63;18.40;;;;;;;3.21;89.34;100854.41;5032057;28;20036;-71
2021/12/23 12:16:29;;;;;;;37.88;17.48;;;;;;;3.24;89.60;100858.72;5032115;28;20543;-72
2021/12/23 12:18:55;;;;;;;39.80;17.73;;;;;;;3.28;89.41;100853.41;5031675;28;20025;-72
2021/12/23 12:21:23;;;;;;;39.72;17.55;;;;;;;3.30;89.52;100860.38;5031427;28;20071;-69
2021/12/23 12:24:09;;;;;;;38.67;17.52;;;;;;;3.27;89.27;100851.69;5035185;28;20028;-73
2021/12/23 12:26:37;;;;;;;35.50;16.88;;;;;;;3.35;89.89;100851.59;5035006;28;20537;-71